Time;durP1;ratioP1;P1;durP2;ratioP2;P2;SDS_P1;SDS_P2;PMS_P1;PMS_P2;Temp;Humidity;BMP_temperature;BMP_pressure;BME280_temperature;BME280_humidity;BME280_pressure;Samples;Min_cycle;Max_cycle;Signal;HPM_P1;HPM_P2
2022/09/12 00:02:21;;;;;;;6.80;2.70;;;;;;;22.46;73.33;98557.50;6277548;22;20645;-87
2022/09/12 00:04:47;;;;;;;3.80;2.23;;;;;;;22.49;73.54;98554.50;6277451;22;20156;-88
2022/09/12 00:07:12;;;;;;;4.77;2.43;;;;;;;22.55;73.08;98559.16;6277454;22;20198;-87
2022/09/12 00:09:38;;;;;;;3.17;1.93;;;;;;;22.56;73.28;98554.66;6278070;22;20210;-87
2022/09/12 00:12:04;;;;;;;4.07;2.27;;;;;;;22.53;73.20;98550.50;6277370;22;20218;-87
2022/09/12 00:14:30;;;;;;;4.33;1.60;;;;;;;22.57;73.37;98553.63;6250600;22;20239;-87
2022/09/12 00:16:59;;;;;;;3.93;2.10;;;;;;;22.61;72.87;98555.78;6277319;22;20207;-88
2022/09/12 00:19:25;;;;;;;4.77;2.10;;;;;;;22.63;72.29;98556.50;6277720;22;20284;-88
2022/09/12 00:21:51;;;;;;;3.57;2.00;;;;;;;22.67;72.16;98542.81;6250508;22;20163;-87
2022/09/12 00:24:16;;;;;;;3.80;1.90;;;;;;;22.64;71.83;98552.81;6277294;22;20149;-87
2022/09/12 00:26:42;;;;;;;4.83;2.57;;;;;;;22.68;72.31;98550.66;6277307;22;20564;-87
2022/09/12 00:29:15;;;;;;;4.63;1.90;;;;;;;22.56;72.34;98549.31;6277932;22;20144;-87
2022/09/12 00:31:41;;;;;;;4.77;2.27;;;;;;;22.62;71.89;98543.28;6277613;22;20154;-88
2022/09/12 00:34:06;;;;;;;3.93;1.90;;;;;;;22.60;72.20;98529.25;6250389;22;20160;-87
2022/09/12 00:36:31;;;;;;;3.93;2.27;;;;;;;22.58;72.09;98537.47;6277100;22;20495;-87
2022/09/12 00:38:58;;;;;;;4.60;2.13;;;;;;;22.58;72.06;98533.94;6277833;22;20148;-87
2022/09/12 00:41:27;;;;;;;4.53;2.67;;;;;;;22.57;71.69;98522.41;6250302;22;20521;-88
2022/09/12 00:43:55;;;;;;;4.70;2.53;;;;;;;22.57;71.93;98532.25;6277101;22;20572;-87
2022/09/12 00:46:34;;;;;;;5.17;2.40;;;;;;;22.58;72.24;98536.63;6276991;22;20152;-87
2022/09/12 00:49:10;;;;;;;6.20;2.80;;;;;;;22.55;72.56;98537.78;6277721;22;20593;-88
2022/09/12 00:51:37;;;;;;;3.90;2.27;;;;;;;22.55;72.45;98535.13;6277402;22;20132;-88
2022/09/12 00:54:09;;;;;;;4.33;2.63;;;;;;;22.62;72.52;98543.28;6250961;22;20153;-88
2022/09/12 00:56:38;;;;;;;4.33;2.37;;;;;;;22.62;72.42;98543.28;6277255;22;20161;-88
2022/09/12 00:59:14;;;;;;;5.50;2.97;;;;;;;22.63;72.20;98540.47;6251271;22;20160;-88
2022/09/12 01:01:42;;;;;;;5.07;2.73;;;;;;;22.71;72.14;98552.13;6277300;22;20132;-88
2022/09/12 01:04:12;;;;;;;4.27;2.43;;;;;;;22.74;72.08;98551.81;6250043;22;20231;-88
2022/09/12 01:06:41;;;;;;;5.07;2.60;;;;;;;22.73;72.34;98544.78;6277629;22;20204;-88
2022/09/12 01:09:08;;;;;;;5.63;2.50;;;;;;;22.71;72.50;98538.78;6277244;22;20200;-88
2022/09/12 01:11:37;;;;;;;6.23;3.40;;;;;;;22.70;72.80;98547.78;6277096;22;20568;-88
2022/09/12 01:14:08;;;;;;;5.13;2.60;;;;;;;22.63;73.34;98551.16;6249975;22;20523;-88
2022/09/12 01:16:36;;;;;;;5.13;2.63;;;;;;;22.69;73.73;98548.81;6249894;22;20196;-88
2022/09/12 01:19:45;;;;;;;6.13;2.83;;;;;;;22.60;73.56;98550.63;6250044;22;20186;-88
2022/09/12 01:22:23;;;;;;;5.10;2.90;;;;;;;22.62;73.80;98544.13;6276162;22;20162;-88
2022/09/12 01:25:11;;;;;;;5.70;2.57;;;;;;;22.71;73.23;98541.44;6277370;22;20194;-88
2022/09/12 01:27:40;;;;;;;5.90;2.70;;;;;;;22.67;72.49;98535.59;6250923;22;20147;-88
2022/09/12 01:30:22;;;;;;;5.77;2.67;;;;;;;22.55;72.77;98535.13;6276989;22;20554;-88
2022/09/12 01:33:06;;;;;;;7.17;2.57;;;;;;;22.54;73.12;98538.78;6250862;22;20239;-88
2022/09/12 01:35:54;;;;;;;6.70;2.80;;;;;;;22.55;72.86;98543.13;6276870;22;20136;-88
2022/09/12 01:38:22;;;;;;;6.23;2.60;;;;;;;22.56;72.77;98539.44;6277285;22;20167;-88
2022/09/12 01:41:10;;;;;;;4.83;2.70;;;;;;;22.54;72.54;98536.13;6249670;22;20218;-88
2022/09/12 01:43:48;;;;;;;5.70;3.40;;;;;;;22.52;72.42;98527.44;6249771;22;20230;-88
2022/09/12 01:46:23;;;;;;;5.53;2.20;;;;;;;22.47;72.75;98524.47;6249591;22;20172;-88
2022/09/12 01:49:04;;;;;;;7.43;2.40;;;;;;;22.46;72.43;98522.78;6277174;22;20148;-88
2022/09/12 01:51:43;;;;;;;5.50;2.50;;;;;;;22.42;72.75;98517.94;6276785;22;20132;-88
2022/09/12 01:54:22;;;;;;;4.63;2.70;;;;;;;22.48;72.48;98527.97;6276766;22;20152;-88
2022/09/12 01:56:58;;;;;;;4.43;2.53;;;;;;;22.52;72.14;98510.56;6276247;22;20623;-88
2022/09/12 01:59:57;;;;;;;;;;;;;;;;;;;;;
2022/09/12 02:02:38;;;;;;;4.80;2.47;;;;;;;22.59;71.96;98512.38;6246256;23;20563;-88
2022/09/12 02:05:21;;;;;;;5.17;2.63;;;;;;;22.51;72.13;98515.09;6246736;23;20570;-88
2022/09/12 02:08:03;;;;;;;6.17;2.47;;;;;;;22.53;72.02;98513.09;6220255;23;20159;-88
2022/09/12 02:10:36;;;;;;;4.57;2.27;;;;;;;22.43;71.92;98512.44;6219130;23;20159;-88
2022/09/12 02:13:36;;;;;;;5.67;2.77;;;;;;;22.46;71.55;98506.75;6219191;23;20187;-88
2022/09/12 02:16:08;;;;;;;4.90;2.47;;;;;;;22.40;71.38;98507.44;6184118;23;20153;-87
2022/09/12 02:18:40;;;;;;;4.83;2.80;;;;;;;22.38;71.70;98511.31;6219313;23;20472;-88
2022/09/12 02:21:09;;;;;;;5.73;2.70;;;;;;;22.18;72.44;98518.81;6245650;23;20148;-88
2022/09/12 02:23:53;;;;;;;;;;;;;;;;;;;;;
2022/09/12 02:26:38;;;;;;;4.50;2.27;;;;;;;22.21;71.83;98513.16;6246534;23;20228;-88
2022/09/12 02:29:21;;;;;;;3.97;2.73;;;;;;;22.20;71.79;98506.13;6219556;23;20160;-88
2022/09/12 02:31:59;;;;;;;5.13;2.97;;;;;;;22.13;71.86;98512.31;6196944;23;20469;-88
2022/09/12 02:34:41;;;;;;;5.03;2.50;;;;;;;21.90;73.15;98514.84;6219150;23;20246;-88
2022/09/12 02:37:48;;;;;;;4.00;2.27;;;;;;;21.88;72.47;98506.19;6245859;23;20556;-88
2022/09/12 02:40:17;;;;;;;4.43;2.43;;;;;;;21.50;74.24;98517.44;6245650;23;20159;-88
2022/09/12 02:42:44;;;;;;;4.93;2.63;;;;;;;21.29;75.71;98521.41;6219821;23;20232;-87
2022/09/12 02:45:11;;;;;;;5.57;3.10;;;;;;;21.26;75.73;98516.38;6219292;23;20596;-88
2022/09/12 02:47:41;;;;;;;4.17;2.40;;;;;;;21.13;76.24;98521.34;6218942;23;20164;-88
2022/09/12 02:50:10;;;;;;;4.47;2.50;;;;;;;20.87;77.71;98523.22;6220052;23;20618;-87
2022/09/12 02:52:36;;;;;;;4.23;2.63;;;;;;;20.86;77.99;98515.41;6219385;23;20157;-87
2022/09/12 02:55:04;;;;;;;7.83;2.17;;;;;;;21.02;77.25;98523.44;6245833;23;20579;-87
2022/09/12 02:57:30;;;;;;;3.10;2.10;;;;;;;20.96;77.30;98518.75;6245751;23;20197;-87
2022/09/12 02:59:59;;;;;;;4.57;2.83;;;;;;;21.02;76.88;98523.44;6219398;23;20149;-87
2022/09/12 03:02:33;;;;;;;6.67;4.07;;;;;;;21.06;76.06;98517.66;6245797;23;20149;-87
2022/09/12 03:05:21;;;;;;;5.93;2.77;;;;;;;21.20;75.60;98514.38;6219024;23;20145;-87
2022/09/12 03:08:24;;;;;;;4.00;2.70;;;;;;;21.35;74.62;98523.44;6218850;23;20498;-87
2022/09/12 03:11:02;;;;;;;3.77;2.17;;;;;;;21.45;73.51;98525.94;6218860;23;20153;-87
2022/09/12 03:13:39;;;;;;;4.10;2.10;;;;;;;21.53;73.28;98509.09;6245731;23;20195;-87
2022/09/12 03:16:30;;;;;;;4.13;2.33;;;;;;;21.48;73.47;98516.78;6245288;23;20148;-87
2022/09/12 03:19:26;;;;;;;3.80;2.17;;;;;;;21.51;73.28;98516.44;6245308;23;20586;-87
2022/09/12 03:22:02;;;;;;;4.93;2.57;;;;;;;21.22;73.72;98520.38;6245321;23;20155;-87
2022/09/12 03:24:53;;;;;;;4.73;2.57;;;;;;;21.16;74.22;98514.84;6246024;23;20133;-87
2022/09/12 03:27:45;;;;;;;5.00;2.57;;;;;;;21.07;74.24;98516.66;6246086;23;20130;-87
2022/09/12 03:30:11;;;;;;;4.47;2.57;;;;;;;21.10;74.63;98516.34;6203265;23;20569;-87
2022/09/12 03:32:46;;;;;;;4.17;2.37;;;;;;;21.25;73.84;98514.72;6245646;23;20156;-87
2022/09/12 03:35:13;;;;;;;7.00;3.17;;;;;;;21.32;73.28;98521.06;6247445;23;20162;-87
2022/09/12 03:37:39;;;;;;;3.93;2.33;;;;;;;21.37;72.53;98517.91;6247348;23;20257;-87
2022/09/12 03:40:05;;;;;;;4.77;2.10;;;;;;;21.39;72.40;98522.09;6221271;23;20232;-87
2022/09/12 03:42:31;;;;;;;3.60;2.00;;;;;;;21.35;72.40;98523.44;6248047;23;20275;-87
2022/09/12 03:44:59;;;;;;;3.83;1.93;;;;;;;21.24;72.92;98515.72;6247068;23;20566;-88
2022/09/12 03:47:25;;;;;;;3.83;2.10;;;;;;;21.32;72.58;98515.75;6220524;23;20161;-87
2022/09/12 03:49:51;;;;;;;8.90;2.40;;;;;;;21.25;72.80;98519.22;6245615;23;20521;-87
2022/09/12 03:52:19;;;;;;;5.90;2.43;;;;;;;21.32;72.75;98520.25;6245201;23;20208;-87
2022/09/12 03:54:44;;;;;;;3.13;1.83;;;;;;;21.32;72.11;98523.75;6246186;23;20145;-87
2022/09/12 03:57:12;;;;;;;4.30;2.37;;;;;;;21.29;71.93;98515.22;6246422;23;20173;-87
2022/09/12 03:59:37;;;;;;;4.07;1.80;;;;;;;21.04;72.47;98513.47;6246928;23;20152;-87
2022/09/12 04:02:03;;;;;;;3.10;1.90;;;;;;;20.99;72.79;98516.59;6220849;23;20214;-87
2022/09/12 04:04:29;;;;;;;3.63;2.10;;;;;;;20.93;73.03;98516.41;6244587;23;20153;-87
2022/09/12 04:06:55;;;;;;;3.13;1.80;;;;;;;21.06;72.16;98520.34;6220142;23;20149;-88
2022/09/12 04:09:20;;;;;;;3.53;1.90;;;;;;;21.08;72.22;98518.34;6246450;23;20145;-87
2022/09/12 04:11:49;;;;;;;3.73;2.23;;;;;;;21.18;71.33;98523.53;6247499;23;20153;-87
2022/09/12 04:14:14;;;;;;;3.43;1.80;;;;;;;21.15;71.08;98519.34;6220746;23;20155;-87
2022/09/12 04:16:40;;;;;;;3.87;2.13;;;;;;;21.08;71.26;98523.66;6220816;23;20196;-88
2022/09/12 04:19:05;;;;;;;2.93;1.80;;;;;;;20.87;71.39;98531.22;6247179;23;20149;-87
2022/09/12 04:21:31;;;;;;;5.07;2.20;;;;;;;20.81;71.61;98531.84;6246699;23;20152;-88
2022/09/12 04:24:01;;;;;;;3.60;2.10;;;;;;;20.66;72.10;98525.44;6219860;23;20188;-87
2022/09/12 04:26:28;;;;;;;5.13;2.30;;;;;;;20.48;72.61;98535.31;6245662;23;20132;-87
2022/09/12 04:29:28;;;;;;;5.00;2.37;;;;;;;20.37;73.63;98532.91;6246652;23;20160;-88
2022/09/12 04:31:45;;;;;;;3.10;1.73;;;;;;;20.11;74.33;98538.22;6241504;23;20252;-87
2022/09/12 04:34:16;;;;;;;3.63;1.93;;;;;;;20.11;74.34;98543.53;6247010;23;20152;-87
2022/09/12 04:36:41;;;;;;;3.50;1.93;;;;;;;20.30;73.55;98531.88;6246525;23;20621;-87
2022/09/12 04:39:07;;;;;;;3.43;2.17;;;;;;;20.30;72.69;98545.19;6246655;23;20145;-86
2022/09/12 04:41:35;;;;;;;5.30;2.20;;;;;;;20.08;73.81;98555.31;6247077;23;20149;-87
2022/09/12 04:44:04;;;;;;;2.83;1.90;;;;;;;19.86;74.13;98554.97;6246903;23;20556;-85
2022/09/12 04:46:35;;;;;;;5.17;2.07;;;;;;;20.02;73.39;98552.44;6247203;23;20572;-88
2022/09/12 04:49:00;;;;;;;5.53;2.10;;;;;;;20.01;73.67;98559.59;6246606;23;20191;-86
2022/09/12 04:51:32;;;;;;;8.53;1.77;;;;;;;20.09;72.63;98562.31;6246515;23;20235;-87
2022/09/12 04:54:04;;;;;;;4.73;2.60;;;;;;;20.18;72.67;98561.38;6247247;23;20631;-87
2022/09/12 04:56:39;;;;;;;3.67;1.83;;;;;;;20.33;72.09;98553.72;6220306;23;20516;-88
2022/09/12 04:59:06;;;;;;;2.50;1.67;;;;;;;20.26;71.37;98554.50;6247250;23;20208;-87
2022/09/12 05:01:34;;;;;;;3.10;1.60;;;;;;;20.34;71.45;98555.38;6247142;23;20183;-86
2022/09/12 05:04:01;;;;;;;4.07;2.20;;;;;;;20.35;71.77;98543.75;6246763;23;20145;-88
2022/09/12 05:06:35;;;;;;;4.07;2.37;;;;;;;20.37;71.17;98559.53;6220244;23;20239;-87
2022/09/12 05:09:07;;;;;;;3.00;1.77;;;;;;;20.41;70.77;98555.59;6246776;23;20177;-90
2022/09/12 05:11:41;;;;;;;4.73;2.00;;;;;;;20.40;70.75;98548.59;6246373;23;20220;-88
2022/09/12 05:14:10;;;;;;;4.57;1.87;;;;;;;20.51;70.46;98564.31;6246670;23;20263;-88
2022/09/12 05:16:58;;;;;;;3.87;2.00;;;;;;;20.74;69.54;98557.44;6246528;23;20180;-87
2022/09/12 05:19:24;;;;;;;2.70;1.70;;;;;;;20.95;68.41;98554.38;6246573;23;20206;-87
2022/09/12 05:21:57;;;;;;;4.97;1.67;;;;;;;20.55;69.68;98552.34;6220093;23;20485;-88
2022/09/12 05:24:26;;;;;;;3.20;1.90;;;;;;;20.69;69.23;98565.94;6246631;23;20148;-88
2022/09/12 05:26:54;;;;;;;5.47;1.87;;;;;;;20.54;69.63;98562.19;6246233;23;20148;-88
2022/09/12 05:29:23;;;;;;;3.20;1.60;;;;;;;20.64;68.76;98560.22;6246565;23;20149;-88
2022/09/12 05:31:55;;;;;;;2.47;1.73;;;;;;;20.54;68.73;98566.66;6220056;23;20248;-89
2022/09/12 05:34:21;;;;;;;2.87;1.63;;;;;;;20.41;68.93;98571.56;6219699;23;20210;-87
2022/09/12 05:37:32;;;;;;;;;;;;;;;;;;;;;
2022/09/12 05:43:19;;;;;;;2.53;1.47;;;;;;;20.65;68.78;98569.88;6246349;23;20152;-89
2022/09/12 05:45:47;;;;;;;2.30;1.40;;;;;;;20.53;68.84;98575.63;6246135;23;20165;-87
2022/09/12 05:48:19;;;;;;;2.53;1.30;;;;;;;20.75;68.41;98583.09;6219921;23;20226;-86
2022/09/12 05:57:42;;;;;;;3.47;1.60;;;;;;;21.24;66.64;98581.53;6067527;23;20212;-89
2022/09/12 06:00:21;;;;;;;;;;;;;;;;;;;;;
2022/09/12 06:03:33;;;;;;;3.03;1.47;;;;;;;21.14;65.42;98586.16;6096234;23;20215;-89
2022/09/12 06:06:04;;;;;;;2.33;1.40;;;;;;;21.18;66.17;98587.50;6219516;23;20153;-89
2022/09/12 06:08:31;;;;;;;1.63;0.90;;;;;;;21.24;65.68;98585.03;6246307;23;20148;-88
2022/09/12 06:11:17;;;;;;;;;;;;;;;;;;;;;
2022/09/12 06:14:25;;;;;;;3.73;1.57;;;;;;;21.32;65.10;98579.72;6246642;23;20208;-89
2022/09/12 06:17:29;;;;;;;3.40;1.13;;;;;;;21.55;63.92;98579.94;6215326;23;20184;-88
2022/09/12 06:19:57;;;;;;;2.07;1.10;;;;;;;21.69;62.47;98586.50;6220427;23;20159;-88
2022/09/12 06:22:29;;;;;;;2.97;1.13;;;;;;;22.04;61.91;98591.56;6246462;23;20149;-89
2022/09/12 06:35:37;;;;;;;2.03;0.90;;;;;;;22.90;58.84;98589.16;6069083;23;20224;-89
2022/09/12 06:39:04;;;;;;;1.17;0.80;;;;;;;23.25;56.36;98586.03;6094987;23;20181;-88
2022/09/12 06:42:19;;;;;;;;;;;;;;;;;;;;;
2022/09/12 06:45:34;;;;;;;0.93;0.60;;;;;;;23.60;56.05;98590.06;6093619;23;20268;-90
2022/09/12 06:51:59;;;;;;;1.23;0.90;;;;;;;24.19;53.92;98583.97;6095329;23;20191;-91
2022/09/12 06:54:46;;;;;;;0.77;0.50;;;;;;;24.11;52.58;98588.59;6071172;23;20283;-90
2022/09/12 07:22:22;;;;;;;;;;;;;;;;;;;;;
2022/09/12 07:29:04;;;;;;;2.15;0.70;;;;;;;26.61;43.39;98580.06;5910028;24;20251;-90
2022/09/12 07:36:27;;;;;;;4.77;0.63;;;;;;;26.63;43.35;98569.91;5817849;24;20201;-89
2022/09/12 07:39:44;;;;;;;;;;;;;;;;;;;;;
2022/09/12 07:42:40;;;;;;;1.05;0.40;;;;;;;26.50;43.58;98577.88;5740492;25;20253;-90
2022/09/12 07:52:26;;;;;;;3.88;1.15;;;;;;;26.84;42.60;98564.50;5848403;24;20500;-88
2022/09/12 07:58:32;;;;;;;0.55;0.30;;;;;;;27.30;41.85;98565.59;5912968;24;20200;-90
2022/09/12 08:05:25;;;;;;;1.33;0.50;;;;;;;26.91;40.42;98567.25;5893525;24;20597;-89
2022/09/12 08:18:44;;;;;;;1.42;0.30;;;;;;;27.14;38.67;98565.94;5883886;24;20170;-88
2022/09/12 08:24:53;;;;;;;0.57;0.30;;;;;;;27.48;38.15;98564.25;5841833;24;20177;-89
2022/09/12 08:34:55;;;;;;;;;;;;;;;;;;;;;
2022/09/12 08:38:27;;;;;;;0.60;0.22;;;;;;;28.11;37.47;98558.41;5861835;24;20272;-89
2022/09/12 08:41:33;;;;;;;0.28;0.10;;;;;;;28.12;36.53;98570.84;5882161;24;20160;-90
2022/09/12 08:51:23;;;;;;;0.20;0.10;;;;;;;27.80;37.42;98544.66;5938256;24;20220;-89
2022/09/12 08:54:55;;;;;;;0.43;0.10;;;;;;;27.96;36.28;98549.66;5955351;23;20148;-88
2022/09/12 08:57:21;;;;;;;0.28;0.13;;;;;;;28.26;35.95;98542.88;6139369;23;20641;-88
2022/09/12 09:00:22;;;;;;;0.43;0.20;;;;;;;28.39;35.26;98553.66;6154470;23;20323;-90
2022/09/12 09:06:58;;;;;;;0.40;0.25;;;;;;;28.51;35.64;98551.16;6154543;23;20578;-89
2022/09/12 09:10:08;;;;;;;0.45;0.17;;;;;;;28.29;35.40;98544.31;6130007;23;20155;-90
2022/09/12 09:14:46;;;;;;;0.93;0.30;;;;;;;28.35;34.68;98549.72;6154410;23;20571;-87
2022/09/12 09:17:10;;;;;;;0.30;0.15;;;;;;;28.03;35.43;98545.97;6216249;23;20224;-88
2022/09/12 09:23:52;;;;;;;1.00;0.38;;;;;;;28.10;35.83;98531.66;6109797;23;20169;-89
2022/09/12 09:27:47;;;;;;;0.60;0.20;;;;;;;28.59;34.88;98540.13;6125718;23;20229;-90
2022/09/12 09:33:46;;;;;;;0.30;0.20;;;;;;;28.84;34.46;98527.69;6055229;23;20239;-90
2022/09/12 09:36:34;;;;;;;0.75;0.30;;;;;;;28.74;34.45;98523.78;6163107;23;20471;-87
2022/09/12 09:39:05;;;;;;;1.92;0.85;;;;;;;28.49;35.14;98528.97;6200982;23;20157;-89
2022/09/12 09:42:11;;;;;;;0.80;0.32;;;;;;;28.82;34.85;98518.16;6214725;23;20504;-88
2022/09/12 09:44:46;;;;;;;1.02;0.32;;;;;;;29.05;34.58;98522.03;6215858;23;20451;-88
2022/09/12 09:47:27;;;;;;;;;;;;;;;;;;;;;
2022/09/12 09:49:56;;;;;;;0.93;0.40;;;;;;;29.13;33.33;98521.78;6241097;23;20292;-90
2022/09/12 09:52:31;;;;;;;1.30;0.40;;;;;;;28.98;34.22;98520.41;6219391;23;20543;-88
2022/09/12 09:55:03;;;;;;;0.77;0.30;;;;;;;28.74;33.76;98516.50;6219692;23;20156;-88
2022/09/12 09:57:34;;;;;;;0.30;0.10;;;;;;;28.84;33.89;98519.59;6245866;23;20187;-87
2022/09/12 10:03:34;;;;;;;0.20;0.20;;;;;;;29.60;33.43;98512.44;6225796;23;20600;-89
2022/09/12 10:06:19;;;;;;;1.75;0.25;;;;;;;29.47;33.41;98515.22;6219318;23;20588;-89
2022/09/12 10:09:31;;;;;;;0.25;0.20;;;;;;;29.37;33.50;98511.34;6245692;23;20170;-88
2022/09/12 10:11:57;;;;;;;0.40;0.30;;;;;;;29.58;33.17;98508.31;6208446;23;20180;-87
2022/09/12 10:14:59;;;;;;;2.90;0.30;;;;;;;29.60;32.39;98512.44;6246212;23;20155;-89
2022/09/12 10:17:42;;;;;;;0.40;0.20;;;;;;;29.80;33.26;98510.47;6220635;23;20241;-89
2022/09/12 10:20:32;;;;;;;0.30;0.10;;;;;;;30.15;32.22;98501.91;6219453;23;20160;-88
2022/09/12 10:23:17;;;;;;;0.43;0.20;;;;;;;30.13;30.57;98507.53;6246356;23;20668;-88
2022/09/12 10:26:02;;;;;;;0.50;0.28;;;;;;;30.14;31.14;98502.94;6220042;23;20464;-89
2022/09/12 10:28:36;;;;;;;0.40;0.20;;;;;;;30.42;31.36;98497.97;6220748;23;20556;-89
2022/09/12 10:31:03;;;;;;;0.25;0.15;;;;;;;30.42;31.67;98500.66;6246215;23;20141;-87
2022/09/12 10:34:14;;;;;;;1.42;0.30;;;;;;;30.36;30.12;98501.53;6245736;23;20235;-90
2022/09/12 10:36:42;;;;;;;0.10;0.10;;;;;;;29.77;32.29;98510.88;6245725;23;20165;-90
2022/09/12 10:39:33;;;;;;;0.40;0.20;;;;;;;30.06;30.62;98500.53;6217800;23;20167;-87
2022/09/12 10:42:06;;;;;;;0.45;0.20;;;;;;;30.47;31.15;98502.69;6223955;23;20145;-95
2022/09/12 10:44:37;;;;;;;0.55;0.22;;;;;;;30.00;30.83;98504.09;6224282;23;20145;-96
2022/09/12 10:47:34;;;;;;;1.58;0.40;;;;;;;30.04;31.07;98497.19;6226567;23;20152;-96
2022/09/12 10:50:27;;;;;;;0.43;0.20;;;;;;;30.15;31.30;98504.59;6225350;23;20169;-96
2022/09/12 10:53:24;;;;;;;0.40;0.17;;;;;;;30.23;30.71;98493.50;6206444;23;20156;-94
2022/09/12 10:56:06;;;;;;;0.13;0.13;;;;;;;30.55;31.08;98495.13;6224338;23;20164;-96
2022/09/12 10:59:31;;;;;;;0.80;0.40;;;;;;;30.81;29.86;98488.59;6226511;23;20180;-95
2022/09/12 11:02:08;;;;;;;0.40;0.15;;;;;;;30.53;29.52;98497.19;6246882;23;20271;-95
2022/09/12 11:05:14;;;;;;;0.30;0.20;;;;;;;30.56;28.32;98496.75;6209595;23;20232;-96
2022/09/12 11:07:48;;;;;;;0.38;0.20;;;;;;;30.92;28.68;98485.97;6227542;23;20149;-96
2022/09/12 11:10:23;;;;;;;0.40;0.20;;;;;;;30.54;29.05;98488.03;6226293;23;20157;-94
2022/09/12 11:13:28;;;;;;;0.20;0.00;;;;;;;30.51;29.05;98484.94;6226266;23;20164;-95
2022/09/12 11:16:34;;;;;;;;;;;;;;;;;;;;;
2022/09/12 11:19:13;;;;;;;0.13;0.10;;;;;;;31.12;29.68;98468.69;6249507;23;20209;-93
2022/09/12 11:21:43;;;;;;;0.57;0.20;;;;;;;31.44;29.12;98470.13;6223352;23;20151;-95
2022/09/12 11:24:26;;;;;;;7.68;0.40;;;;;;;31.31;29.67;98468.44;6226458;23;20142;-94
2022/09/12 11:27:19;;;;;;;0.17;0.10;;;;;;;31.52;28.70;98467.13;6223049;23;20141;-95
2022/09/12 11:30:01;;;;;;;0.20;0.10;;;;;;;31.91;27.81;98469.25;6223882;23;20154;-95
2022/09/12 11:33:09;;;;;;;;;;;;;;;;;;;;;
2022/09/12 11:35:43;;;;;;;0.43;0.20;;;;;;;32.14;27.21;98469.28;6101458;23;20211;-95
2022/09/12 11:38:59;;;;;;;0.10;0.10;;;;;;;32.26;27.66;98457.63;6077024;23;20186;-96
2022/09/12 11:42:04;;;;;;;0.15;0.10;;;;;;;32.12;28.35;98462.47;6123502;23;20165;-95
2022/09/12 11:44:47;;;;;;;0.55;0.20;;;;;;;32.40;28.62;98457.16;6219449;23;20149;-95
2022/09/12 11:48:26;;;;;;;0.60;0.28;;;;;;;31.83;28.48;98458.72;6227112;23;20151;-94
2022/09/12 11:50:42;;;;;;;0.60;0.40;;;;;;;31.67;29.51;98463.97;6237010;23;20173;-95
2022/09/12 11:53:40;;;;;;;0.60;0.30;;;;;;;31.44;28.86;98452.00;6227560;23;20156;-96
2022/09/12 11:56:24;;;;;;;0.20;0.10;;;;;;;31.27;28.90;98460.97;6225910;23;20144;-94
2022/09/12 12:02:47;;;;;;;0.50;0.30;;;;;;;31.12;28.44;98453.25;6186262;23;20157;-95
2022/09/12 12:05:49;;;;;;;0.30;0.20;;;;;;;31.49;28.41;98454.03;6219049;23;20242;-93
2022/09/12 12:08:57;;;;;;;;;;;;;;;;;;;;;
2022/09/12 12:11:49;;;;;;;0.65;0.20;;;;;;;31.87;28.32;98446.34;6250775;23;20231;-94
2022/09/12 12:20:53;;;;;;;0.98;0.20;;;;;;;31.87;28.40;98443.63;6092450;23;20171;-96
2022/09/12 12:24:01;;;;;;;0.77;0.40;;;;;;;31.83;28.41;98428.06;6082942;23;20167;-95
2022/09/12 12:26:39;;;;;;;0.45;0.30;;;;;;;31.84;28.48;98441.38;6097887;23;20227;-95
2022/09/12 12:29:35;;;;;;;0.20;0.10;;;;;;;31.85;28.27;98425.94;6103203;23;20508;-94
2022/09/12 12:32:12;;;;;;;0.20;0.17;;;;;;;31.99;28.75;98428.25;6100056;23;20534;-94
2022/09/12 12:34:47;;;;;;;0.82;0.40;;;;;;;31.83;29.11;98437.03;6101643;23;20152;-96
2022/09/12 12:37:22;;;;;;;0.30;0.20;;;;;;;31.85;28.95;98428.66;6203232;23;20184;-93
2022/09/12 12:40:27;;;;;;;0.20;0.20;;;;;;;31.83;29.23;98438.91;6225898;23;20156;-95
2022/09/12 12:43:09;;;;;;;0.82;0.30;;;;;;;31.59;28.68;98438.88;6153156;23;20157;-94
2022/09/12 12:45:37;;;;;;;0.50;0.25;;;;;;;31.16;29.30;98437.41;6175857;23;20153;-95
2022/09/12 12:48:41;;;;;;;;;;;;;;;;;;;;;
2022/09/12 12:51:52;;;;;;;0.10;0.10;;;;;;;31.08;29.81;98430.41;6190360;23;20216;-94
2022/09/12 12:54:55;;;;;;;;;;;;;;;;;;;;;
2022/09/12 12:57:21;;;;;;;0.30;0.20;;;;;;;30.73;28.83;98438.31;6193413;23;20206;-95
2022/09/12 13:00:28;;;;;;;0.20;0.13;;;;;;;30.63;29.09;98429.06;6190361;23;20158;-96
2022/09/12 13:03:12;;;;;;;0.30;0.20;;;;;;;30.75;28.54;98425.38;6154143;23;20154;-96
2022/09/12 13:06:05;;;;;;;0.30;0.10;;;;;;;30.72;28.85;98430.41;6192674;23;20189;-94
2022/09/12 13:09:13;;;;;;;0.20;0.13;;;;;;;30.62;29.10;98435.53;6192188;23;20589;-95
2022/09/12 13:12:33;;;;;;;0.10;0.10;;;;;;;31.08;28.73;98424.19;6133999;23;20163;-96
2022/09/12 13:15:55;;;;;;;0.28;0.17;;;;;;;31.83;27.39;98422.66;6024044;23;20248;-95
2022/09/12 13:18:50;;;;;;;1.65;0.13;;;;;;;32.12;27.18;98417.19;6025063;23;20201;-94
2022/09/12 13:28:50;;;;;;;0.30;0.10;;;;;;;31.50;26.22;98426.69;6020947;23;20235;-95
2022/09/12 13:31:54;;;;;;;;;;;;;;;;;;;;;
2022/09/12 13:47:58;;;;;;;0.43;0.20;;;;;;;30.35;28.21;98418.72;6015086;23;20222;-95
2022/09/12 13:50:38;;;;;;;0.52;0.30;;;;;;;30.34;28.75;98414.38;6136450;23;20181;-95
2022/09/12 13:53:37;;;;;;;0.35;0.20;;;;;;;30.36;29.13;98410.44;6164259;23;20261;-94
2022/09/12 13:56:22;;;;;;;1.00;0.45;;;;;;;30.12;29.42;98413.13;6179783;23;20158;-95
2022/09/12 13:59:27;;;;;;;0.43;0.28;;;;;;;30.33;29.45;98407.31;6166376;23;20147;-96
2022/09/12 14:02:51;;;;;;;;;;;;;;;;;;;;;
2022/09/12 14:12:09;;;;;;;1.17;0.13;;;;;;;30.00;29.89;98423.84;6048018;23;20160;-95
2022/09/12 14:14:49;;;;;;;0.28;0.20;;;;;;;30.22;29.49;98429.66;6049026;23;20157;-94
2022/09/12 14:17:43;;;;;;;;;;;;;;;;;;;;;
2022/09/12 14:23:31;;;;;;;1.10;0.10;;;;;;;29.81;29.84;98431.09;6153343;23;20150;-96
2022/09/12 14:26:11;;;;;;;;;;;;;;;;;;;;;
2022/09/12 14:36:13;;;;;;;;;;;;;;;;;;;;;
2022/09/12 14:39:14;;;;;;;0.17;0.10;;;;;;;29.07;30.54;98430.03;6195558;23;20236;-96
2022/09/12 14:45:43;;;;;;;0.40;0.30;;;;;;;28.76;31.23;98438.06;6144968;23;20255;-95
2022/09/12 14:52:47;;;;;;;0.22;0.13;;;;;;;28.93;31.47;98433.84;6056610;23;20184;-96
2022/09/12 14:55:59;;;;;;;;;;;;;;;;;;;;;
2022/09/12 14:58:27;;;;;;;0.98;0.28;;;;;;;28.63;31.49;98439.78;6079111;23;20605;-96
2022/09/12 15:04:46;;;;;;;0.52;0.25;;;;;;;28.51;31.83;98430.63;6082092;23;20303;-93
2022/09/12 15:07:52;;;;;;;;;;;;;;;;;;;;;
2022/09/12 15:10:43;;;;;;;;;;;;;;;;;;;;;
2022/09/12 15:13:57;;;;;;;0.55;0.20;;;;;;;28.71;31.86;98432.47;6185043;23;20189;-95
2022/09/12 15:17:03;;;;;;;;;;;;;;;;;;;;;
2022/09/12 15:23:43;;;;;;;1.10;0.38;;;;;;;29.18;31.90;98427.50;6096894;23;20157;-95
2022/09/12 15:26:30;;;;;;;2.25;0.40;;;;;;;29.09;31.27;98423.38;6016692;23;20191;-96
2022/09/12 15:29:17;;;;;;;0.40;0.20;;;;;;;29.03;30.90;98431.53;6016568;23;20594;-96
2022/09/12 15:31:58;;;;;;;0.52;0.40;;;;;;;28.74;31.76;98435.59;6079016;23;20156;-96
2022/09/12 15:35:12;;;;;;;0.68;0.30;;;;;;;28.75;31.61;98439.13;6053958;23;20533;-96
2022/09/12 15:40:25;;;;;;;0.88;0.30;;;;;;;28.20;32.53;98427.78;6197138;23;20151;-93
2022/09/12 15:42:53;;;;;;;0.90;0.20;;;;;;;28.27;32.01;98431.34;6192033;23;20490;-96
2022/09/12 15:52:17;;;;;;;1.42;0.30;;;;;;;28.22;32.17;98425.75;6240648;23;20163;-96
2022/09/12 15:58:03;;;;;;;0.40;0.20;;;;;;;28.27;32.10;98430.50;6239855;23;20240;-96
2022/09/12 16:00:44;;;;;;;0.73;0.30;;;;;;;28.26;31.95;98429.66;6224008;23;20484;-96
2022/09/12 16:03:21;;;;;;;0.50;0.25;;;;;;;28.34;32.15;98424.06;6224378;23;20145;-95
2022/09/12 16:06:49;;;;;;;;;;;;;;;;;;;;;
2022/09/12 16:09:24;;;;;;;0.80;0.43;;;;;;;27.71;33.17;98430.06;6055824;23;20232;-96
2022/09/12 16:12:13;;;;;;;;;;;;;;;;;;;;;
2022/09/12 16:21:05;;;;;;;0.85;0.60;;;;;;;27.55;34.51;98443.94;6203103;23;20157;-95
2022/09/12 16:23:31;;;;;;;1.50;0.70;;;;;;;27.58;34.61;98444.38;6224160;23;20461;-95
2022/09/12 16:27:18;;;;;;;;;;;;;;;;;;;;;
2022/09/12 16:29:21;;;;;;;4.53;1.27;;;;;;;27.01;35.58;98446.66;6223989;23;20191;-96
2022/09/12 16:37:04;;;;;;;4.70;1.00;;;;;;;26.76;36.65;98451.69;5932052;24;20167;-96
2022/09/12 16:42:45;;;;;;;2.60;1.10;;;;;;;26.76;36.70;98449.00;6101650;23;20156;-95
2022/09/12 16:45:19;;;;;;;1.85;1.08;;;;;;;26.56;36.86;98454.28;6090523;23;20199;-95
2022/09/12 16:47:47;;;;;;;2.58;1.60;;;;;;;26.69;36.82;98457.06;6062575;23;20616;-95
2022/09/12 16:50:15;;;;;;;2.33;1.33;;;;;;;26.75;36.65;98458.97;6075714;23;20251;-96